Time;durP1;ratioP1;P1;durP2;ratioP2;P2;SDS_P1;SDS_P2;PMS_P1;PMS_P2;Temp;Humidity;BMP_temperature;BMP_pressure;BME280_temperature;BME280_humidity;BME280_pressure;Samples;Min_cycle;Max_cycle;Signal;HPM_P1;HPM_P2
2022/06/20 00:01:05;;;;;;;5.70;1.70;;;17.40;68.10;;;;;;5051987;28;20033;-65
2022/06/20 00:03:43;;;;;;;6.13;1.70;;;17.40;68.40;;;;;;5057122;28;20036;-66
2022/06/20 00:06:14;;;;;;;7.90;1.50;;;17.30;68.40;;;;;;5050631;28;20040;-65
2022/06/20 00:08:40;;;;;;;7.18;1.67;;;17.30;68.40;;;;;;5055271;28;20112;-66
2022/06/20 00:11:11;;;;;;;4.97;1.50;;;17.30;68.50;;;;;;5053587;28;20025;-65
2022/06/20 00:13:40;;;;;;;6.75;1.65;;;17.20;68.50;;;;;;5055846;28;20385;-65
2022/06/20 00:16:06;;;;;;;4.72;1.50;;;17.20;68.50;;;;;;5046827;28;20108;-65
2022/06/20 00:18:31;;;;;;;5.45;1.70;;;17.20;68.50;;;;;;5052552;28;20121;-65
2022/06/20 00:20:58;;;;;;;5.90;1.50;;;17.10;68.60;;;;;;5041619;28;20128;-65
2022/06/20 00:23:24;;;;;;;5.40;1.52;;;17.10;68.70;;;;;;5043330;28;20036;-65
2022/06/20 00:25:49;;;;;;;5.53;1.83;;;17.10;68.70;;;;;;5041714;28;20442;-66
2022/06/20 00:28:16;;;;;;;5.43;1.40;;;17.10;68.70;;;;;;5048518;28;20033;-65
2022/06/20 00:30:42;;;;;;;6.22;1.55;;;17.10;68.70;;;;;;5043246;28;20029;-65
2022/06/20 00:33:10;;;;;;;8.25;1.83;;;17.00;68.70;;;;;;5041588;28;20035;-65
2022/06/20 00:35:37;;;;;;;6.50;1.60;;;17.10;68.60;;;;;;5030002;28;20078;-65
2022/06/20 00:38:05;;;;;;;5.03;1.20;;;17.00;68.60;;;;;;5049546;28;20076;-66
2022/06/20 00:40:40;;;;;;;6.15;1.48;;;17.00;68.60;;;;;;5042873;28;20025;-68
2022/06/20 00:43:10;;;;;;;8.15;1.98;;;17.10;68.90;;;;;;5050565;28;20039;-66
2022/06/20 00:45:44;;;;;;;8.68;1.65;;;17.00;68.70;;;;;;5052669;28;20079;-66
2022/06/20 00:48:15;;;;;;;8.98;1.58;;;17.00;68.80;;;;;;5049321;28;20083;-67
2022/06/20 00:50:40;;;;;;;7.22;2.15;;;17.00;68.80;;;;;;5037612;28;20033;-67
2022/06/20 00:53:24;;;;;;;7.57;1.92;;;17.00;68.80;;;;;;5056036;28;20025;-68
2022/06/20 00:55:55;;;;;;;7.15;1.58;;;17.00;68.80;;;;;;5031767;28;20021;-67
2022/06/20 00:58:38;;;;;;;6.57;1.65;;;17.00;68.90;;;;;;5046701;28;20083;-66
2022/06/20 01:01:10;;;;;;;5.45;1.67;;;17.00;68.90;;;;;;5049495;28;20029;-66
2022/06/20 01:03:44;;;;;;;4.88;1.20;;;17.00;68.90;;;;;;5054661;28;20021;-67
2022/06/20 01:06:13;;;;;;;6.07;1.50;;;17.00;68.80;;;;;;5048772;28;20025;-66
2022/06/20 01:08:44;;;;;;;7.03;1.58;;;17.00;68.80;;;;;;5046630;28;20040;-66
2022/06/20 01:11:31;;;;;;;6.85;1.50;;;17.00;68.80;;;;;;5039139;28;20025;-66
2022/06/20 01:13:56;;;;;;;4.57;1.33;;;17.00;68.80;;;;;;5055449;28;20106;-66
2022/06/20 01:16:32;;;;;;;5.93;1.58;;;17.00;68.90;;;;;;5050548;28;20025;-66
2022/06/20 01:19:01;;;;;;;5.15;1.58;;;17.00;69.00;;;;;;5053721;28;20037;-66
2022/06/20 01:21:33;;;;;;;5.55;1.70;;;17.00;69.10;;;;;;5051877;28;20089;-68
2022/06/20 01:24:12;;;;;;;6.25;1.70;;;16.90;69.10;;;;;;5045811;28;20086;-68
2022/06/20 01:27:09;;;;;;;4.47;1.42;;;16.90;69.20;;;;;;5048472;28;20044;-68
2022/06/20 01:29:35;;;;;;;6.78;1.55;;;16.90;69.30;;;;;;5045471;28;20039;-65
2022/06/20 01:32:01;;;;;;;4.75;1.35;;;16.90;69.30;;;;;;5041675;28;20021;-69
2022/06/20 01:34:27;;;;;;;5.53;1.33;;;16.90;69.40;;;;;;5044422;28;20028;-69
2022/06/20 01:39:42;;;;;;;8.45;1.60;;;16.90;69.40;;;;;;5041237;28;20086;-70
2022/06/20 01:42:20;;;;;;;7.57;1.70;;;16.90;69.30;;;;;;5036426;28;20033;-70
2022/06/20 01:45:02;;;;;;;3.67;1.13;;;16.90;70.10;;;;;;5048474;28;20032;-68
2022/06/20 01:47:28;;;;;;;7.93;1.60;;;16.90;69.40;;;;;;5043466;28;20045;-68
2022/06/20 01:50:05;;;;;;;5.00;1.23;;;16.90;69.40;;;;;;5049823;28;20086;-68
2022/06/20 01:52:37;;;;;;;5.70;1.30;;;16.90;69.50;;;;;;5042692;28;20017;-68
2022/06/20 01:55:18;;;;;;;5.85;1.58;;;16.90;69.60;;;;;;5048153;28;20025;-68
2022/06/20 01:57:48;;;;;;;4.43;1.48;;;16.80;69.50;;;;;;5051476;28;20029;-68
2022/06/20 02:00:20;;;;;;;4.00;1.27;;;16.80;69.60;;;;;;5050419;28;20132;-68
2022/06/20 02:02:53;;;;;;;4.95;1.42;;;16.80;69.60;;;;;;5042783;28;20037;-68
2022/06/20 02:05:23;;;;;;;7.25;1.77;;;16.80;69.70;;;;;;5049608;28;20053;-68
2022/06/20 02:07:49;;;;;;;5.70;1.77;;;16.80;70.40;;;;;;5048634;28;20033;-68
2022/06/20 02:10:24;;;;;;;7.45;1.70;;;16.80;69.70;;;;;;5049203;28;20031;-67
2022/06/20 02:12:51;;;;;;;5.20;1.63;;;16.70;69.90;;;;;;5042003;28;20087;-68
2022/06/20 02:15:19;;;;;;;5.28;1.25;;;16.70;69.80;;;;;;5053467;28;20040;-68
2022/06/20 02:17:47;;;;;;;5.30;1.38;;;16.70;69.80;;;;;;5041130;28;20039;-68
2022/06/20 02:20:17;;;;;;;4.75;1.40;;;16.70;69.80;;;;;;5052006;28;20116;-68
2022/06/20 02:22:43;;;;;;;6.28;1.80;;;16.70;70.00;;;;;;5047386;28;20025;-66
2022/06/20 02:25:13;;;;;;;6.55;1.63;;;16.70;70.00;;;;;;5051958;28;20060;-66
2022/06/20 02:27:42;;;;;;;5.63;1.70;;;16.70;70.10;;;;;;5040453;28;20032;-66
2022/06/20 02:30:09;;;;;;;6.35;1.48;;;16.70;70.10;;;;;;5050953;28;20032;-66
2022/06/20 02:32:55;;;;;;;6.93;1.50;;;16.60;70.10;;;;;;5041586;28;20033;-66
2022/06/20 02:35:21;;;;;;;3.88;1.23;;;16.60;70.20;;;;;;5048482;28;20037;-66
2022/06/20 02:37:48;;;;;;;5.75;1.50;;;16.60;70.20;;;;;;5041159;28;20056;-66
2022/06/20 02:40:22;;;;;;;6.75;1.85;;;16.60;70.30;;;;;;5053007;28;20123;-66
2022/06/20 02:42:56;;;;;;;4.63;1.38;;;16.60;70.40;;;;;;5041793;28;20470;-66
2022/06/20 02:45:24;;;;;;;4.05;1.40;;;16.60;70.40;;;;;;5048181;28;20018;-66
2022/06/20 02:47:54;;;;;;;6.53;1.73;;;16.70;70.50;;;;;;5042820;28;20160;-66
2022/06/20 02:50:26;;;;;;;5.80;1.90;;;16.60;70.60;;;;;;5034616;28;20524;-66
2022/06/20 02:53:06;;;;;;;5.28;1.75;;;16.60;70.60;;;;;;5035648;28;20033;-66
2022/06/20 02:55:34;;;;;;;5.10;1.48;;;16.60;70.60;;;;;;5046209;28;20021;-66
2022/06/20 02:58:06;;;;;;;6.40;1.75;;;16.60;70.70;;;;;;5042859;28;20033;-66
2022/06/20 03:00:41;;;;;;;6.75;1.60;;;16.60;70.70;;;;;;5033571;28;20029;-66
2022/06/20 03:03:14;;;;;;;6.72;1.55;;;16.60;70.80;;;;;;5037511;28;20033;-68
2022/06/20 03:05:40;;;;;;;4.55;1.30;;;16.60;70.90;;;;;;5035060;28;20116;-68
2022/06/20 03:08:05;;;;;;;7.70;1.95;;;16.70;70.90;;;;;;5015910;28;20112;-68
2022/06/20 03:10:38;;;;;;;7.50;1.77;;;16.70;71.00;;;;;;5036137;28;20061;-65
2022/06/20 03:13:04;;;;;;;4.38;1.38;;;16.70;71.00;;;;;;5041117;28;20393;-68
2022/06/20 03:15:31;;;;;;;7.70;1.67;;;16.70;71.00;;;;;;5034018;28;20029;-67
2022/06/20 03:17:57;;;;;;;5.68;1.80;;;16.70;70.90;;;;;;5034333;28;20032;-67
2022/06/20 03:20:28;;;;;;;5.05;1.50;;;16.70;71.00;;;;;;5036792;28;20025;-68
2022/06/20 03:23:16;;;;;;;5.50;1.52;;;16.70;70.90;;;;;;5020328;28;20366;-67
2022/06/20 03:25:43;;;;;;;5.45;1.48;;;16.70;70.70;;;;;;5035895;28;20530;-67
2022/06/20 03:28:16;;;;;;;5.93;1.80;;;16.70;70.70;;;;;;5035841;28;20112;-67
2022/06/20 03:30:42;;;;;;;6.40;1.52;;;16.80;70.60;;;;;;5031608;28;20074;-67
2022/06/20 03:33:13;;;;;;;6.22;1.45;;;16.70;70.40;;;;;;5035961;28;20327;-67
2022/06/20 03:35:53;;;;;;;6.40;1.40;;;16.70;70.20;;;;;;5042203;28;20036;-69
2022/06/20 03:38:18;;;;;;;5.43;1.52;;;16.80;70.00;;;;;;5042847;28;20044;-67
2022/06/20 03:40:44;;;;;;;6.78;1.90;;;16.70;69.80;;;;;;5052900;28;20442;-68
2022/06/20 03:43:13;;;;;;;6.25;1.50;;;16.60;69.80;;;;;;5043167;28;20423;-68
2022/06/20 03:45:45;;;;;;;7.47;2.05;;;16.60;69.70;;;;;;5042299;28;20030;-68
2022/06/20 03:48:19;;;;;;;6.80;1.80;;;16.60;69.70;;;;;;5049828;28;20075;-68
2022/06/20 03:50:51;;;;;;;5.32;1.65;;;16.60;69.80;;;;;;5050282;28;20025;-67
2022/06/20 03:53:19;;;;;;;4.65;1.52;;;16.60;69.70;;;;;;5049842;28;20037;-64
2022/06/20 03:55:54;;;;;;;5.38;1.63;;;16.50;69.70;;;;;;5054166;28;20043;-63
2022/06/20 03:58:36;;;;;;;7.10;1.90;;;16.50;69.80;;;;;;5055252;28;20057;-64
2022/06/20 04:01:31;;;;;;;6.90;1.50;;;16.50;69.70;;;;;;5045468;28;20025;-64
2022/06/20 04:04:07;;;;;;;6.43;1.65;;;16.50;69.70;;;;;;5039540;28;20043;-64
2022/06/20 04:06:57;;;;;;;6.20;1.63;;;16.50;69.70;;;;;;5057406;28;20047;-64
2022/06/20 04:12:54;;;;;;;5.25;1.63;;;16.50;69.60;;;;;;5055905;28;20167;-64
2022/06/20 04:15:38;;;;;;;7.50;1.55;;;16.40;69.60;;;;;;5056374;28;20075;-65
2022/06/20 04:18:27;;;;;;;6.50;1.95;;;16.50;69.70;;;;;;5051169;28;20347;-65
2022/06/20 04:21:05;;;;;;;6.35;1.88;;;16.50;69.50;;;;;;5051958;28;20362;-66
2022/06/20 04:23:46;;;;;;;7.70;1.80;;;16.60;69.60;;;;;;5047321;28;20357;-66
2022/06/20 04:26:23;;;;;;;6.03;1.52;;;16.60;69.30;;;;;;5051965;28;20083;-65
2022/06/20 04:29:10;;;;;;;5.75;1.65;;;16.70;69.30;;;;;;5052125;28;20447;-65
2022/06/20 04:32:00;;;;;;;7.53;2.05;;;16.70;69.10;;;;;;5052524;28;20104;-66
2022/06/20 04:34:41;;;;;;;5.40;1.65;;;16.80;69.20;;;;;;5042748;28;20107;-66
2022/06/20 04:37:16;;;;;;;7.10;1.67;;;16.80;69.20;;;;;;5052457;28;20468;-65
2022/06/20 04:39:53;;;;;;;5.25;1.70;;;16.90;69.10;;;;;;5045958;28;20068;-65
2022/06/20 04:42:46;;;;;;;5.00;1.92;;;16.90;68.80;;;;;;5055165;28;20025;-65
2022/06/20 04:45:31;;;;;;;6.63;1.80;;;16.90;68.60;;;;;;5052419;28;20033;-66
2022/06/20 04:48:06;;;;;;;7.50;1.73;;;16.90;68.80;;;;;;5052851;28;20091;-68
2022/06/20 04:50:34;;;;;;;4.35;1.48;;;17.00;68.90;;;;;;5047436;28;20021;-68
2022/06/20 04:53:05;;;;;;;7.40;1.77;;;17.00;68.90;;;;;;5043398;28;20087;-68
2022/06/20 04:55:33;;;;;;;7.50;1.98;;;17.10;68.90;;;;;;5047743;28;20240;-68
2022/06/20 04:58:04;;;;;;;9.05;1.98;;;17.10;68.80;;;;;;5054005;28;20060;-67
2022/06/20 05:00:39;;;;;;;6.13;1.73;;;17.10;68.60;;;;;;5046854;28;20373;-67
2022/06/20 05:03:07;;;;;;;3.90;1.85;;;17.10;68.40;;;;;;5037918;28;20021;-68
2022/06/20 05:05:38;;;;;;;5.13;1.70;;;17.20;68.30;;;;;;5032063;28;20029;-68
2022/06/20 05:08:09;;;;;;;7.10;1.85;;;17.20;68.20;;;;;;5041120;28;20025;-67
2022/06/20 05:10:39;;;;;;;;;;;17.30;68.20;;;;;;5065725;28;20036;-69
2022/06/20 05:13:13;;;;;;;5.43;1.80;;;17.40;67.90;;;;;;5026286;28;19999;-67
2022/06/20 05:15:43;;;;;;;7.15;1.73;;;17.70;67.30;;;;;;5043117;28;20069;-67
2022/06/20 05:18:22;;;;;;;8.07;1.65;;;17.80;66.90;;;;;;5041627;28;20079;-66
2022/06/20 05:20:50;;;;;;;8.02;2.00;;;17.80;66.70;;;;;;5051384;28;20330;-68
2022/06/20 05:23:38;;;;;;;8.35;2.40;;;17.90;67.40;;;;;;5042530;28;20066;-67
2022/06/20 05:26:06;;;;;;;8.43;2.47;;;18.10;66.40;;;;;;5050297;28;20422;-67
2022/06/20 05:28:33;;;;;;;6.00;1.98;;;18.20;66.10;;;;;;5051521;28;20025;-67
2022/06/20 05:31:01;;;;;;;5.80;1.73;;;18.30;65.90;;;;;;5046958;28;20025;-69
2022/06/20 05:33:34;;;;;;;5.30;1.90;;;18.30;65.80;;;;;;5049279;28;20029;-68
2022/06/20 05:36:15;;;;;;;5.65;2.03;;;18.30;65.80;;;;;;5048195;28;20027;-68
2022/06/20 05:38:43;;;;;;;5.45;1.60;;;18.40;65.70;;;;;;5052314;28;20346;-68
2022/06/20 05:41:17;;;;;;;7.28;1.95;;;18.30;65.60;;;;;;5049422;28;20040;-69
2022/06/20 05:43:43;;;;;;;4.72;1.77;;;18.30;65.70;;;;;;5049006;28;20029;-69
2022/06/20 05:46:39;;;;;;;5.40;1.58;;;18.30;65.60;;;;;;5047509;28;20201;-69
2022/06/20 05:49:11;;;;;;;6.57;1.73;;;18.30;65.50;;;;;;5042107;28;20029;-69
2022/06/20 05:51:39;;;;;;;7.15;2.25;;;18.20;65.60;;;;;;5040323;28;20147;-69
2022/06/20 05:54:14;;;;;;;4.80;1.70;;;18.20;65.60;;;;;;5032892;28;20029;-69
2022/06/20 05:56:47;;;;;;;6.05;1.80;;;18.20;65.70;;;;;;5040382;28;20056;-69
2022/06/20 05:59:27;;;;;;;6.60;2.15;;;18.20;66.10;;;;;;5036575;28;20033;-69
2022/06/20 06:02:00;;;;;;;7.20;1.48;;;18.20;65.90;;;;;;5036545;28;20159;-69
2022/06/20 06:04:52;;;;;;;5.38;1.45;;;18.30;65.50;;;;;;5035300;28;20017;-69
2022/06/20 06:07:26;;;;;;;7.35;1.63;;;18.30;65.30;;;;;;5033076;28;20144;-69
2022/06/20 06:09:55;;;;;;;5.25;1.65;;;18.30;65.30;;;;;;5037253;28;20096;-69
2022/06/20 06:12:39;;;;;;;5.40;1.98;;;18.30;65.30;;;;;;5037258;28;20024;-69
2022/06/20 06:15:13;;;;;;;7.80;1.70;;;18.40;65.40;;;;;;5034320;28;20045;-69
2022/06/20 06:17:48;;;;;;;11.23;1.80;;;18.50;65.20;;;;;;5035299;28;20034;-69
2022/06/20 06:20:20;;;;;;;6.70;1.88;;;18.60;65.10;;;;;;5038514;28;20033;-68
2022/06/20 06:22:51;;;;;;;5.93;1.75;;;18.80;64.90;;;;;;5039038;28;20033;-71
2022/06/20 06:25:29;;;;;;;5.45;1.90;;;19.00;64.10;;;;;;5057741;28;20083;-71
2022/06/20 06:28:08;;;;;;;5.80;1.80;;;19.20;63.20;;;;;;5033524;28;20029;-71
2022/06/20 06:30:42;;;;;;;6.22;1.77;;;19.40;62.60;;;;;;5042124;28;20025;-70
2022/06/20 06:33:27;;;;;;;7.35;1.83;;;19.60;62.10;;;;;;5040987;28;20041;-70
2022/06/20 06:36:16;;;;;;;4.43;1.60;;;19.80;61.70;;;;;;5039614;28;20018;-71
2022/06/20 06:38:48;;;;;;;5.25;1.67;;;19.80;61.50;;;;;;5053694;28;20452;-70
2022/06/20 06:41:38;;;;;;;6.90;1.52;;;19.70;61.60;;;;;;5042348;28;20021;-71
2022/06/20 06:44:17;;;;;;;4.63;1.60;;;19.60;61.40;;;;;;5032510;28;20075;-65
2022/06/20 06:46:48;;;;;;;8.55;1.73;;;19.40;61.50;;;;;;5042389;28;20112;-65
2022/06/20 06:49:23;;;;;;;9.15;1.52;;;19.30;61.80;;;;;;5046035;28;20107;-65
2022/06/20 06:52:10;;;;;;;4.80;1.58;;;19.20;62.30;;;;;;5033761;28;20116;-66
2022/06/20 06:54:42;;;;;;;6.10;1.83;;;19.10;62.50;;;;;;5037739;28;20194;-64
2022/06/20 06:57:24;;;;;;;4.75;1.50;;;19.00;62.40;;;;;;5037110;28;20038;-65
2022/06/20 07:00:02;;;;;;;5.32;1.95;;;19.00;62.50;;;;;;5044813;28;20509;-65
2022/06/20 07:02:30;;;;;;;4.80;1.88;;;19.10;63.20;;;;;;5038056;28;20474;-65
2022/06/20 07:05:30;;;;;;;4.65;2.00;;;19.30;62.30;;;;;;5038449;28;20025;-65
2022/06/20 07:08:03;;;;;;;4.18;1.60;;;19.60;61.90;;;;;;5033440;28;20064;-69
2022/06/20 07:10:36;;;;;;;5.93;1.70;;;20.00;60.80;;;;;;5034955;28;20372;-70
2022/06/20 07:13:25;;;;;;;5.50;1.88;;;20.30;60.10;;;;;;5033788;28;20147;-69
2022/06/20 07:15:55;;;;;;;5.38;1.88;;;20.50;59.20;;;;;;5037074;28;20038;-64
2022/06/20 07:18:42;;;;;;;7.80;2.10;;;20.70;58.60;;;;;;5043957;28;20079;-66
2022/06/20 07:21:12;;;;;;;6.70;2.35;;;21.00;58.30;;;;;;5041956;28;20042;-65
2022/06/20 07:23:39;;;;;;;4.40;1.80;;;21.30;57.90;;;;;;5046458;28;20024;-65
2022/06/20 07:26:04;;;;;;;8.75;2.47;;;21.50;57.30;;;;;;5048509;28;20335;-65
2022/06/20 07:28:44;;;;;;;6.00;2.10;;;21.80;56.90;;;;;;5042800;28;20033;-70
2022/06/20 07:31:25;;;;;;;6.75;2.10;;;22.00;55.80;;;;;;5042400;28;20028;-66
2022/06/20 07:33:56;;;;;;;5.65;2.10;;;22.20;55.80;;;;;;5045673;28;20021;-66
2022/06/20 07:36:28;;;;;;;5.97;2.38;;;22.30;54.70;;;;;;5037239;28;20030;-65
2022/06/20 07:39:06;;;;;;;4.50;1.90;;;22.40;54.30;;;;;;5036736;28;20036;-65
2022/06/20 07:41:43;;;;;;;4.60;1.85;;;22.50;53.90;;;;;;5036961;28;20025;-65
2022/06/20 07:44:22;;;;;;;6.32;2.08;;;22.70;53.20;;;;;;5043947;28;20037;-65
2022/06/20 07:46:57;;;;;;;6.20;2.25;;;22.90;53.40;;;;;;5044021;28;20079;-65
2022/06/20 07:49:57;;;;;;;7.13;2.03;;;23.10;52.30;;;;;;5048287;28;21729;-64
2022/06/20 07:52:42;;;;;;;6.07;1.80;;;23.20;51.60;;;;;;5037163;28;20053;-65
2022/06/20 07:55:13;;;;;;;4.50;1.90;;;23.30;51.50;;;;;;5035880;28;20084;-65
2022/06/20 07:57:51;;;;;;;4.72;1.92;;;22.90;51.60;;;;;;5037098;28;20108;-65
2022/06/20 08:00:23;;;;;;;6.85;1.90;;;22.40;52.10;;;;;;5038026;28;20026;-65
2022/06/20 08:02:57;;;;;;;5.43;2.05;;;22.00;52.60;;;;;;5041452;28;20120;-68
2022/06/20 08:05:36;;;;;;;6.88;2.10;;;21.90;52.90;;;;;;5053529;28;20033;-64
2022/06/20 08:08:25;;;;;;;6.85;2.10;;;22.10;52.80;;;;;;5045681;28;20029;-64
2022/06/20 08:10:58;;;;;;;7.45;2.20;;;22.40;52.30;;;;;;5046068;28;20468;-64
2022/06/20 08:13:35;;;;;;;7.03;2.47;;;22.50;52.20;;;;;;5054510;28;20120;-64
2022/06/20 08:16:10;;;;;;;5.70;1.92;;;22.40;51.00;;;;;;5051685;28;20026;-61
2022/06/20 08:18:36;;;;;;;5.80;2.17;;;22.10;51.60;;;;;;5052400;28;20112;-63
2022/06/20 08:21:12;;;;;;;6.15;2.22;;;22.10;51.80;;;;;;5054584;28;20111;-64
2022/06/20 08:23:53;;;;;;;6.68;2.42;;;22.20;50.90;;;;;;5047551;28;20049;-64
2022/06/20 08:26:24;;;;;;;6.70;2.05;;;22.30;49.90;;;;;;5042600;28;20460;-63
2022/06/20 08:28:59;;;;;;;8.15;2.28;;;22.40;49.80;;;;;;5056081;28;20029;-63
2022/06/20 08:31:40;;;;;;;4.78;2.03;;;22.30;49.90;;;;;;5057018;28;20055;-63
2022/06/20 08:34:14;;;;;;;5.55;2.15;;;22.20;50.60;;;;;;5056995;28;20025;-63
2022/06/20 08:36:59;;;;;;;5.35;2.25;;;22.20;50.40;;;;;;5056599;28;20028;-63
2022/06/20 08:39:37;;;;;;;8.02;2.70;;;22.40;49.60;;;;;;5050528;28;20033;-63
2022/06/20 08:42:48;;;;;;;6.68;2.50;;;22.60;48.80;;;;;;5054308;28;20367;-64
2022/06/20 08:45:30;;;;;;;7.60;2.25;;;22.70;48.80;;;;;;5037873;28;20040;-63
2022/06/20 08:48:17;;;;;;;6.28;2.20;;;23.00;48.60;;;;;;5042327;28;20033;-63
2022/06/20 08:51:31;;;;;;;7.07;2.05;;;22.90;48.20;;;;;;5051825;28;20036;-63
2022/06/20 08:54:25;;;;;;;6.10;2.40;;;22.70;48.10;;;;;;5047096;28;20358;-63
2022/06/20 08:57:14;;;;;;;6.95;2.10;;;22.50;48.50;;;;;;5039315;28;20025;-64
2022/06/20 09:00:02;;;;;;;6.72;2.05;;;22.40;48.40;;;;;;5052152;28;20316;-64
2022/06/20 09:02:48;;;;;;;6.55;2.35;;;22.60;47.80;;;;;;5054903;28;20040;-63
2022/06/20 09:05:33;;;;;;;6.82;2.35;;;23.00;46.90;;;;;;5042836;28;20025;-63
2022/06/20 09:08:16;;;;;;;5.85;2.00;;;23.20;46.10;;;;;;5053290;28;20025;-64
2022/06/20 09:10:41;;;;;;;6.28;2.10;;;23.50;45.50;;;;;;5047749;28;20506;-64
2022/06/20 09:13:31;;;;;;;5.90;2.28;;;23.70;45.30;;;;;;5052709;28;20155;-64
2022/06/20 09:16:00;;;;;;;6.20;2.00;;;23.70;45.30;;;;;;5051441;28;20083;-64
2022/06/20 09:18:44;;;;;;;5.82;2.17;;;23.80;45.50;;;;;;5043685;28;20489;-65
2022/06/20 09:21:31;;;;;;;6.38;2.22;;;23.90;45.10;;;;;;5049089;28;20029;-64
2022/06/20 09:24:14;;;;;;;5.43;2.05;;;24.00;44.60;;;;;;5037483;28;20409;-68
2022/06/20 09:27:04;;;;;;;4.78;1.70;;;24.20;44.90;;;;;;5044375;28;20350;-71
2022/06/20 09:29:32;;;;;;;5.85;1.92;;;24.40;43.80;;;;;;5045631;28;20393;-64
2022/06/20 09:32:30;;;;;;;5.60;1.60;;;24.50;43.70;;;;;;5041755;28;20496;-66
2022/06/20 09:35:33;;;;;;;6.60;1.90;;;24.70;43.10;;;;;;5054160;28;20035;-64
2022/06/20 09:37:58;;;;;;;7.25;2.30;;;24.70;43.10;;;;;;5036202;28;20427;-65
2022/06/20 09:40:41;;;;;;;4.90;1.90;;;24.50;43.70;;;;;;5052717;28;20060;-64
2022/06/20 09:43:06;;;;;;;5.82;2.08;;;24.30;43.70;;;;;;5041852;28;20037;-65
2022/06/20 09:45:39;;;;;;;5.70;2.05;;;24.30;44.50;;;;;;5045595;28;20035;-67
2022/06/20 09:48:31;;;;;;;6.25;1.98;;;24.30;44.00;;;;;;5050043;28;20029;-67
2022/06/20 09:51:08;;;;;;;5.55;1.85;;;24.10;44.10;;;;;;5051190;28;20044;-63
2022/06/20 09:54:08;;;;;;;6.70;1.90;;;24.20;44.00;;;;;;5043181;28;20029;-64
2022/06/20 09:56:43;;;;;;;5.18;1.70;;;24.40;43.20;;;;;;5047074;28;20366;-65
2022/06/20 09:59:26;;;;;;;5.40;1.70;;;24.60;43.10;;;;;;5051450;28;20116;-64
2022/06/20 10:02:14;;;;;;;6.53;1.70;;;24.60;42.90;;;;;;5054009;28;20059;-64
2022/06/20 10:04:57;;;;;;;7.75;3.40;;;24.30;43.20;;;;;;5050020;28;20035;-64
2022/06/20 10:07:43;;;;;;;6.43;2.70;;;24.50;43.30;;;;;;5051923;28;20056;-64
2022/06/20 10:10:36;;;;;;;7.95;2.90;;;24.60;43.00;;;;;;5038989;28;20378;-65
2022/06/20 10:13:21;;;;;;;7.28;2.30;;;24.80;42.60;;;;;;5052049;28;20028;-65
2022/06/20 10:16:05;;;;;;;7.60;2.50;;;24.90;42.20;;;;;;5051495;28;20029;-64
2022/06/20 10:18:53;;;;;;;6.80;1.95;;;25.00;41.90;;;;;;5052267;28;20025;-68
2022/06/20 10:21:31;;;;;;;5.75;1.85;;;25.10;41.60;;;;;;5040057;28;20091;-64
2022/06/20 10:24:19;;;;;;;4.93;1.70;;;25.20;41.60;;;;;;5039843;28;20159;-64
2022/06/20 10:27:22;;;;;;;6.60;1.83;;;25.30;41.70;;;;;;5035705;28;20033;-63
2022/06/20 10:30:23;;;;;;;6.45;1.90;;;25.50;41.20;;;;;;5038898;28;20381;-64
2022/06/20 10:32:58;;;;;;;6.10;1.92;;;25.50;40.60;;;;;;5031381;28;20068;-63
2022/06/20 10:35:44;;;;;;;4.60;1.80;;;25.40;40.60;;;;;;5033267;28;20025;-63
2022/06/20 10:38:42;;;;;;;5.60;1.95;;;25.40;40.40;;;;;;5026120;28;20374;-64
2022/06/20 10:41:21;;;;;;;6.28;1.98;;;25.20;40.10;;;;;;5038904;28;20301;-64
2022/06/20 10:44:07;;;;;;;6.80;2.42;;;25.20;40.30;;;;;;5041788;28;20120;-65
2022/06/20 10:46:49;;;;;;;5.03;1.73;;;25.20;40.00;;;;;;5041848;28;20112;-64
2022/06/20 10:49:49;;;;;;;3.20;1.50;;;25.10;39.60;;;;;;5038786;28;20040;-63
2022/06/20 10:52:39;;;;;;;5.15;1.50;;;25.30;39.20;;;;;;5044041;28;20028;-65
2022/06/20 10:55:10;;;;;;;4.28;1.52;;;25.40;39.00;;;;;;5043388;28;20033;-64
2022/06/20 10:58:03;;;;;;;6.68;1.65;;;25.40;39.20;;;;;;5030341;28;20033;-64
2022/06/20 11:00:35;;;;;;;4.97;1.48;;;25.50;39.10;;;;;;5041657;28;20028;-64
2022/06/20 11:03:04;;;;;;;2.88;1.20;;;25.60;38.80;;;;;;5039216;28;20345;-63
2022/06/20 11:05:48;;;;;;;4.88;1.40;;;25.60;38.30;;;;;;5039505;28;20048;-64
2022/06/20 11:08:29;;;;;;;5.57;1.40;;;25.40;38.40;;;;;;5044857;28;20029;-63
2022/06/20 11:10:58;;;;;;;4.35;1.58;;;25.20;38.60;;;;;;5034307;28;20096;-63
2022/06/20 11:13:48;;;;;;;2.92;1.30;;;24.90;38.60;;;;;;5039144;28;20053;-63
2022/06/20 11:16:36;;;;;;;4.05;1.25;;;24.60;39.10;;;;;;5044101;28;20025;-64
2022/06/20 11:19:32;;;;;;;4.88;1.50;;;24.60;39.50;;;;;;5047381;28;20393;-63
2022/06/20 11:22:28;;;;;;;3.85;1.45;;;24.80;39.20;;;;;;5047053;28;20127;-63
2022/06/20 11:25:18;;;;;;;2.35;1.13;;;24.80;39.00;;;;;;5038440;28;20018;-63
2022/06/20 11:28:08;;;;;;;4.53;1.70;;;24.70;39.10;;;;;;5042425;28;20033;-63
2022/06/20 11:30:49;;;;;;;3.03;1.50;;;24.50;39.60;;;;;;5050312;28;20380;-64
2022/06/20 11:34:00;;;;;;;6.47;1.75;;;24.40;40.10;;;;;;5036337;28;20028;-63
2022/06/20 11:36:16;;;;;;;6.18;1.50;;;24.30;40.40;;;;;;5047461;28;20025;-63
2022/06/20 11:38:51;;;;;;;6.75;1.50;;;24.30;40.70;;;;;;5052109;28;20035;-63
2022/06/20 11:41:25;;;;;;;3.40;1.30;;;24.20;40.90;;;;;;5049590;28;20075;-72
2022/06/20 11:44:19;;;;;;;6.03;1.90;;;24.10;41.10;;;;;;5042042;28;20026;-67
2022/06/20 11:47:16;;;;;;;6.53;1.92;;;23.90;41.20;;;;;;5033982;28;20033;-68
2022/06/20 11:50:00;;;;;;;4.75;1.60;;;23.80;41.30;;;;;;5033781;28;20425;-68
2022/06/20 11:52:42;;;;;;;5.88;1.52;;;24.10;41.20;;;;;;5038432;28;20079;-68
2022/06/20 11:55:26;;;;;;;;;;;24.10;41.10;;;;;;5034626;28;20030;-68
2022/06/20 11:57:54;;;;;;;4.72;1.50;;;23.90;41.50;;;;;;5041811;28;19916;-68
2022/06/20 12:00:32;;;;;;;6.78;1.58;;;23.70;41.70;;;;;;5035872;28;20127;-68
2022/06/20 12:03:25;;;;;;;5.00;1.88;;;23.70;41.70;;;;;;5038786;28;20061;-68
2022/06/20 12:05:59;;;;;;;3.42;1.40;;;23.90;41.70;;;;;;5044301;28;20427;-68
2022/06/20 12:08:28;;;;;;;4.72;1.55;;;24.00;41.10;;;;;;5054805;28;20021;-71
2022/06/20 12:11:01;;;;;;;7.45;1.90;;;24.10;40.90;;;;;;5028906;28;20036;-71
2022/06/20 12:13:41;;;;;;;4.22;1.52;;;24.20;40.60;;;;;;5045750;28;20076;-70
2022/06/20 12:16:34;;;;;;;6.75;1.60;;;24.20;40.40;;;;;;5041369;28;20028;-70
2022/06/20 12:24:49;;;;;;;5.47;1.73;;;24.30;40.80;;;;;;5048253;28;20021;-69
2022/06/20 12:27:18;;;;;;;3.58;1.40;;;24.40;40.80;;;;;;5040141;28;20033;-69
2022/06/20 12:29:46;;;;;;;4.43;1.70;;;24.30;40.70;;;;;;5050367;28;20102;-69
2022/06/20 12:32:18;;;;;;;4.65;1.50;;;24.20;41.00;;;;;;5054315;28;20025;-69
2022/06/20 12:35:01;;;;;;;4.93;1.42;;;24.10;41.00;;;;;;5053990;28;20086;-69
2022/06/20 12:37:43;;;;;;;6.68;2.08;;;24.00;40.90;;;;;;5052459;28;20029;-70
2022/06/20 12:40:11;;;;;;;5.13;1.65;;;24.00;40.90;;;;;;5035601;28;20067;-69
2022/06/20 12:42:49;;;;;;;4.25;1.40;;;24.00;41.10;;;;;;5028072;28;20044;-69
2022/06/20 12:45:39;;;;;;;3.80;1.48;;;23.90;41.30;;;;;;5019881;28;20457;-69
2022/06/20 12:48:28;;;;;;;6.03;1.70;;;23.80;41.50;;;;;;5038599;28;20034;-68
2022/06/20 12:51:07;;;;;;;5.10;1.58;;;23.60;41.70;;;;;;5036731;28;20029;-69
2022/06/20 12:54:24;;;;;;;4.00;1.40;;;23.70;41.90;;;;;;5043447;28;20056;-69
2022/06/20 12:56:55;;;;;;;4.32;1.83;;;23.80;41.80;;;;;;4997666;28;20033;-71
2022/06/20 12:59:42;;;;;;;6.20;1.83;;;23.80;41.90;;;;;;5025113;28;20045;-69
2022/06/20 13:02:25;;;;;;;4.10;1.50;;;23.70;42.00;;;;;;5028971;28;20177;-69
2022/06/20 13:05:00;;;;;;;5.78;1.55;;;23.60;42.80;;;;;;5016600;28;20045;-69
2022/06/20 13:07:45;;;;;;;3.85;1.40;;;23.50;42.20;;;;;;5019414;28;20141;-69
2022/06/20 13:10:11;;;;;;;5.05;1.67;;;23.40;42.30;;;;;;5022955;28;20045;-68
2022/06/20 13:12:39;;;;;;;5.85;1.70;;;23.40;42.50;;;;;;5029359;28;20044;-69
2022/06/20 13:15:14;;;;;;;4.63;1.63;;;23.50;42.60;;;;;;5022909;28;20046;-69
2022/06/20 13:17:52;;;;;;;8.95;1.90;;;23.60;42.50;;;;;;4991979;28;20026;-69
2022/06/20 13:20:41;;;;;;;6.25;1.70;;;23.70;42.40;;;;;;5015492;28;20049;-69
2022/06/20 13:23:32;;;;;;;6.55;2.05;;;23.70;42.60;;;;;;4999371;28;20626;-69
2022/06/20 13:26:19;;;;;;;5.72;1.55;;;23.60;43.00;;;;;;5021285;28;20517;-68
2022/06/20 13:29:22;;;;;;;6.43;1.75;;;23.50;43.20;;;;;;5016632;28;20117;-68
2022/06/20 13:32:25;;;;;;;6.30;1.95;;;23.50;43.40;;;;;;5019104;28;20041;-68
2022/06/20 13:35:15;;;;;;;4.82;1.70;;;23.40;43.70;;;;;;5037116;28;20025;-68
2022/06/20 13:37:50;;;;;;;7.50;1.95;;;23.30;44.00;;;;;;5042342;28;20021;-68
2022/06/20 13:40:33;;;;;;;7.88;1.92;;;23.20;44.20;;;;;;5034904;28;20072;-68
2022/06/20 13:43:24;;;;;;;7.22;2.28;;;23.10;44.20;;;;;;5038286;28;20037;-68
2022/06/20 13:45:53;;;;;;;4.65;1.70;;;23.10;44.40;;;;;;5042349;28;20056;-68
2022/06/20 13:48:28;;;;;;;3.65;1.50;;;23.20;44.40;;;;;;5042794;28;20279;-68
2022/06/20 13:51:18;;;;;;;6.35;1.80;;;23.20;44.40;;;;;;5036016;28;20013;-68
2022/06/20 13:53:48;;;;;;;4.68;1.83;;;23.30;44.30;;;;;;5037556;28;20393;-68